»·PEaware :: NKS572 KLAS-KBUR

NKS572 :: KLAS-KBUR

FLIGHT INFORMATION

Flight Status: Arrived
Operator:
Spirit Airlines
More flights by this operator :: More flights under this callsign
Pilot: Luc P. (3613)
Aircraft: Unknown
(A32N)
More flights by this aircraft type
Origin: KLAS McCarran Intl
United States
Destination: KBUR Bob Hope-Burbank
United States
More flights between these airports :: More routes between these airports
Route: BOACH8 WHIGG KREME JANNY5
File this flight plan on PilotEdge
Remarks:
Altitude:
(Current/Filed)
22,000ft
Speed:
(Current/Filed)
373kts
Departed: 10-Jan-21 08:24 AM
Arrived: 10-Jan-21 09:09 AM
Distance/Time
Traveled:
193nm/0:45
Distance/Time
To Go:
Arrived

Flight Plot

Page will automatically refresh every two minutes.

Flight plan parsing failed; only flown route is shown


Map Options




Map Legend


Flown Route
Filed Route
Departure Airport
Arrival Airport
Navaid (VOR, NDB)
Fix

Horizontal Profiles

Position Reports

Time Latitude Longitude Heading Altitude Ground
Speed
10-Jan-21 08:00 36.086380 -115.153649 97 2187ft 0kts
10-Jan-21 08:01 36.086380 -115.153649 97 2187ft 0kts
10-Jan-21 08:02 36.086380 -115.153649 97 2187ft 0kts
10-Jan-21 08:03 36.086380 -115.153649 97 2187ft 0kts
10-Jan-21 08:04 36.086380 -115.153649 97 2187ft 0kts
10-Jan-21 08:05 36.086380 -115.153649 97 2187ft 0kts
10-Jan-21 08:06 36.086380 -115.153649 97 2187ft 0kts
10-Jan-21 08:07 36.086380 -115.153649 97 2187ft 0kts
10-Jan-21 08:08 36.086380 -115.153649 97 2187ft 0kts
10-Jan-21 08:09 36.086380 -115.153649 97 2187ft 0kts
10-Jan-21 08:10 36.086430 -115.154099 97 2187ft 2kts
10-Jan-21 08:11 36.086518 -115.154982 85 2187ft 2kts
10-Jan-21 08:12 36.086252 -115.155627 27 2187ft 0kts
10-Jan-21 08:13 36.086252 -115.155627 27 2187ft 0kts
10-Jan-21 08:14 36.087625 -115.155546 272 2187ft 9kts
10-Jan-21 08:15 36.086885 -115.158024 186 2187ft 12kts
10-Jan-21 08:16 36.083959 -115.156328 154 2187ft 15kts
10-Jan-21 08:17 36.079082 -115.153508 148 2187ft 15kts
10-Jan-21 08:18 36.078500 -115.146829 93 2187ft 24kts
10-Jan-21 08:19 36.078280 -115.139734 88 2187ft 23kts
10-Jan-21 08:20 36.078291 -115.130705 90 2187ft 25kts
10-Jan-21 08:21 36.078310 -115.122890 93 2187ft 11kts
10-Jan-21 08:22 36.076591 -115.121261 187 2189ft 11kts
10-Jan-21 08:23 36.076419 -115.124598 271 2187ft 64kts
10-Jan-21 08:24 36.076747 -115.175184 271 4034ft 186kts
10-Jan-21 08:25 36.065132 -115.253612 225 6286ft 266kts
10-Jan-21 08:26 35.995688 -115.291436 196 9458ft 282kts
10-Jan-21 08:27 35.911704 -115.309967 186 12494ft 338kts
10-Jan-21 08:28 35.811889 -115.310236 177 15374ft 378kts
10-Jan-21 08:29 35.704207 -115.300203 187 18382ft 395kts
10-Jan-21 08:30 35.618346 -115.372947 232 20903ft 385kts
10-Jan-21 08:31 35.546486 -115.472777 233 22355ft 394kts
10-Jan-21 08:32 35.470287 -115.569554 229 22427ft 394kts
10-Jan-21 08:33 35.392061 -115.663432 229 22425ft 394kts
10-Jan-21 08:34 35.313401 -115.756662 229 22409ft 393kts
10-Jan-21 08:35 35.234715 -115.849411 228 22412ft 392kts
10-Jan-21 08:36 35.156228 -115.941601 228 22388ft 391kts
10-Jan-21 08:37 35.078096 -116.033080 228 22358ft 389kts
10-Jan-21 08:38 34.999809 -116.124453 228 22358ft 388kts
10-Jan-21 08:39 34.926541 -116.219657 242 22357ft 380kts
10-Jan-21 08:40 34.876305 -116.332385 248 22379ft 377kts
10-Jan-21 08:41 34.830685 -116.447045 249 22387ft 375kts
10-Jan-21 08:42 34.791577 -116.563897 260 22388ft 371kts
10-Jan-21 08:43 34.774577 -116.687415 266 22379ft 368kts
10-Jan-21 08:44 34.762972 -116.811348 266 22398ft 368kts
10-Jan-21 08:45 34.750900 -116.935131 266 22391ft 370kts
10-Jan-21 08:46 34.738330 -117.059454 266 22385ft 371kts
10-Jan-21 08:47 34.725503 -117.183922 266 22381ft 371kts
10-Jan-21 08:48 34.712602 -117.307560 265 20651ft 366kts
10-Jan-21 08:49 34.699885 -117.427922 265 18358ft 354kts
10-Jan-21 08:50 34.687502 -117.545026 264 15973ft 344kts
10-Jan-21 08:51 34.675299 -117.659501 264 14248ft 335kts
10-Jan-21 08:52 34.663307 -117.771614 264 14105ft 334kts
10-Jan-21 08:53 34.651203 -117.883465 265 12899ft 330kts
10-Jan-21 08:54 34.639592 -117.992766 262 10392ft 324kts
10-Jan-21 08:55 34.623664 -118.094820 256 9288ft 284kts
10-Jan-21 08:56 34.604382 -118.186277 254 7970ft 273kts
10-Jan-21 08:57 34.584411 -118.275690 254 8069ft 273kts
10-Jan-21 08:58 34.564388 -118.364794 254 8115ft 273kts
10-Jan-21 08:59 34.529247 -118.443328 221 7760ft 271kts
10-Jan-21 09:00 34.469781 -118.493826 213 7210ft 242kts
10-Jan-21 09:01 34.409724 -118.514759 179 5287ft 217kts
10-Jan-21 09:02 34.353544 -118.511818 170 4421ft 189kts
10-Jan-21 09:04 34.322350 -118.464445 98 3938ft 190kts
10-Jan-21 09:05 34.305444 -118.407641 121 3154ft 167kts
10-Jan-21 09:06 34.272674 -118.376195 166 2391ft 150kts
10-Jan-21 09:07 34.233712 -118.366317 167 1428ft 135kts
10-Jan-21 09:08 34.199492 -118.356938 167 724ft 69kts
10-Jan-21 09:09 34.195148 -118.356764 334 707ft 3kts
10-Jan-21 09:10 34.195730 -118.356909 349 711ft 6kts
10-Jan-21 09:11 34.197197 -118.353810 90 715ft 14kts
10-Jan-21 09:12 34.196990 -118.352404 183 711ft 0kts
10-Jan-21 09:13 34.196769 -118.352410 182 711ft 0kts
10-Jan-21 09:14 34.196769 -118.352410 182 711ft 0kts
10-Jan-21 09:15 34.196769 -118.352410 182 711ft 0kts
10-Jan-21 09:16 34.196769 -118.352410 182 711ft 0kts
10-Jan-21 09:17 34.196769 -118.352410 182 711ft 0kts
10-Jan-21 09:18 34.196769 -118.352410 182 711ft 0kts
10-Jan-21 09:18 34.196769 -118.352410 182 711ft 0kts
10-Jan-21 09:20 34.196769 -118.352410 182 711ft 0kts
10-Jan-21 09:21 34.196769 -118.352410 182 711ft 0kts
10-Jan-21 09:21 34.196769 -118.352410 182 711ft 0kts
10-Jan-21 09:22 34.196769 -118.352410 182 711ft 0kts

Navigation Log

Ident Type
Flight plan parsing failed, navigation log unavailable